Time;durP1;ratioP1;P1;durP2;ratioP2;P2;SDS_P1;SDS_P2;PMS_P1;PMS_P2;Temp;Humidity;BMP_temperature;BMP_pressure;BME280_temperature;BME280_humidity;BME280_pressure;Samples;Min_cycle;Max_cycle;Signal;HPM_P1;HPM_P2
2022/09/14 00:01:27;;;;;;;5.00;2.35;;;;;;;10.16;82.27;95352.94;1757230;82;20993;-70
2022/09/14 00:03:58;;;;;;;2.87;2.33;;;;;;;10.19;82.54;95357.28;1757068;82;21499;-70
2022/09/14 00:06:26;;;;;;;2.75;2.50;;;;;;;10.21;81.83;95356.80;1757061;82;21056;-70
2022/09/14 00:08:56;;;;;;;8.60;2.37;;;;;;;10.16;81.91;95346.80;1757754;82;21056;-70
2022/09/14 00:11:26;;;;;;;2.20;2.00;;;;;;;10.18;81.97;95352.46;1757235;82;21020;-70
2022/09/14 00:13:55;;;;;;;2.80;2.60;;;;;;;10.18;82.07;95350.28;1757095;81;21436;-70
2022/09/14 00:16:27;;;;;;;4.50;3.05;;;;;;;10.17;82.42;95346.75;1757192;82;21515;-70
2022/09/14 00:19:05;;;;;;;4.83;3.27;;;;;;;10.12;82.60;95345.12;1757243;82;21001;-73
2022/09/14 00:21:38;;;;;;;7.62;4.47;;;;;;;10.16;83.10;95345.48;1757050;82;21032;-71
2022/09/14 00:24:06;;;;;;;5.40;2.90;;;;;;;10.22;82.88;95346.66;1757503;82;21048;-70
2022/09/14 00:26:33;;;;;;;4.30;3.15;;;;;;;10.22;82.68;95345.34;1756913;82;21029;-70
2022/09/14 00:29:03;;;;;;;3.83;2.60;;;;;;;10.18;82.69;95335.33;1756904;82;21032;-70
2022/09/14 00:31:34;;;;;;;5.03;2.50;;;;;;;10.19;82.57;95333.09;1757190;81;21017;-69
2022/09/14 00:34:02;;;;;;;8.08;3.37;;;;;;;10.16;83.19;95336.26;1756976;82;21021;-69
2022/09/14 00:36:31;;;;;;;11.13;3.07;;;;;;;10.16;83.67;95333.16;1757116;82;20981;-69
2022/09/14 00:38:59;;;;;;;6.40;2.90;;;;;;;10.22;83.94;95334.80;1757179;82;21064;-69
2022/09/14 00:41:31;;;;;;;12.73;3.85;;;;;;;10.18;84.12;95344.55;1757118;82;21015;-70
2022/09/14 00:44:14;;;;;;;6.33;2.60;;;;;;;10.15;84.37;95331.44;1757615;82;21005;-69
2022/09/14 00:46:47;;;;;;;4.53;2.50;;;;;;;10.19;84.20;95333.55;1757439;82;21503;-69
2022/09/14 00:49:29;;;;;;;5.25;2.65;;;;;;;10.21;84.52;95339.66;1757180;82;20981;-70
2022/09/14 00:52:19;;;;;;;3.98;2.27;;;;;;;10.23;83.77;95332.59;1757326;82;21478;-70
2022/09/14 00:54:53;;;;;;;3.58;3.27;;;;;;;10.23;84.56;95335.23;1755859;81;20990;-70
2022/09/14 00:57:21;;;;;;;4.15;2.83;;;;;;;10.25;84.40;95330.77;1757231;82;21456;-70
2022/09/14 00:59:51;;;;;;;4.53;2.60;;;;;;;10.32;84.51;95323.18;1757220;82;21005;-70
2022/09/14 01:02:21;;;;;;;5.05;2.42;;;;;;;10.40;84.07;95324.33;1756787;82;20994;-70
2022/09/14 01:04:49;;;;;;;3.80;2.47;;;;;;;10.42;83.32;95322.98;1757170;81;21021;-70
2022/09/14 01:07:31;;;;;;;2.77;2.25;;;;;;;10.46;83.56;95318.04;1757249;82;21463;-70
2022/09/14 01:10:22;;;;;;;4.28;3.00;;;;;;;10.55;83.83;95321.80;1757005;81;20997;-70
2022/09/14 01:13:32;;;;;;;4.15;2.40;;;;;;;10.59;83.72;95316.88;1757207;82;21061;-69
2022/09/14 01:16:49;;;;;;;7.03;3.10;;;;;;;10.59;83.33;95308.51;1755675;81;21017;-69
2022/09/14 01:19:27;;;;;;;5.33;2.80;;;;;;;10.65;83.56;95311.91;1740814;82;20995;-69
2022/09/14 01:21:57;;;;;;;5.50;2.83;;;;;;;10.68;83.31;95315.78;1741125;82;21035;-70
2022/09/14 01:24:48;;;;;;;4.10;2.80;;;;;;;10.72;83.39;95318.32;1748370;81;21037;-70
2022/09/14 01:27:29;;;;;;;5.35;2.90;;;;;;;10.78;82.98;95317.30;1757234;82;21044;-70
2022/09/14 01:30:13;;;;;;;3.67;2.37;;;;;;;10.74;82.64;95315.66;1756307;81;21056;-70
2022/09/14 01:32:48;;;;;;;6.50;3.00;;;;;;;10.64;82.69;95317.64;1757013;82;21016;-70
2022/09/14 01:35:39;;;;;;;3.50;2.80;;;;;;;10.59;83.22;95316.88;1756773;81;20985;-70
2022/09/14 01:38:17;;;;;;;3.62;2.45;;;;;;;10.66;83.10;95317.16;1756437;81;21029;-70
2022/09/14 01:40:48;;;;;;;3.02;2.10;;;;;;;10.65;83.14;95322.46;1757210;82;21012;-70
2022/09/14 01:43:36;;;;;;;2.62;2.30;;;;;;;10.62;83.32;95318.12;1757152;82;21064;-70
2022/09/14 01:46:09;;;;;;;2.58;2.00;;;;;;;10.66;83.45;95324.19;1737805;82;22608;-70
2022/09/14 01:49:00;;;;;;;6.53;2.62;;;;;;;10.63;82.37;95317.66;1755319;81;21069;-70
2022/09/14 01:51:42;;;;;;;2.75;2.55;;;;;;;10.61;82.47;95319.90;1756830;81;21021;-70
2022/09/14 01:54:14;;;;;;;3.70;2.75;;;;;;;10.56;83.02;95327.52;1757158;82;21051;-69
2022/09/14 01:56:55;;;;;;;6.50;2.87;;;;;;;10.62;83.29;95322.08;1757241;81;21511;-69
2022/09/14 01:59:32;;;;;;;5.42;2.95;;;;;;;10.67;83.24;95312.28;1755598;81;21040;-69
2022/09/14 02:02:07;;;;;;;6.65;3.05;;;;;;;10.69;82.88;95318.40;1757190;82;21484;-69
2022/09/14 02:04:39;;;;;;;3.12;2.60;;;;;;;10.65;82.77;95319.36;1751354;82;21025;-69
2022/09/14 02:07:06;;;;;;;2.65;2.45;;;;;;;10.61;82.83;95311.98;1756522;81;21522;-70
2022/09/14 02:09:33;;;;;;;3.55;2.15;;;;;;;10.55;82.43;95304.19;1756937;82;21554;-70
2022/09/14 02:12:01;;;;;;;4.45;2.30;;;;;;;10.53;83.02;95302.06;1756629;82;21060;-70
2022/09/14 02:14:28;;;;;;;6.28;3.22;;;;;;;10.47;83.00;95302.65;1753160;81;21057;-70
2022/09/14 02:16:55;;;;;;;6.50;2.25;;;;;;;10.36;83.22;95299.80;1749204;81;21018;-70
2022/09/14 02:19:24;;;;;;;3.47;2.62;;;;;;;10.29;83.13;95303.94;1748867;82;21024;-70
2022/09/14 02:21:51;;;;;;;3.42;3.00;;;;;;;10.26;83.50;95311.89;1748848;81;21057;-70
2022/09/14 02:24:18;;;;;;;5.15;2.58;;;;;;;10.19;83.58;95307.19;1749155;82;21017;-70
2022/09/14 02:26:47;;;;;;;5.30;2.52;;;;;;;10.16;84.00;95307.26;1748855;82;20989;-70
2022/09/14 02:29:14;;;;;;;2.92;2.37;;;;;;;10.11;83.73;95311.77;1749298;82;21005;-70
2022/09/14 02:32:21;;;;;;;3.27;2.55;;;;;;;10.06;83.52;95298.67;1749206;81;21467;-69
2022/09/14 02:35:17;;;;;;;3.42;3.08;;;;;;;10.08;83.73;95306.11;1749150;81;21523;-69
2022/09/14 02:38:15;;;;;;;7.05;3.22;;;;;;;10.11;84.38;95308.67;1749016;81;21029;-69
2022/09/14 02:40:56;;;;;;;8.38;5.22;;;;;;;10.12;84.51;95300.30;1748963;81;21021;-69
2022/09/14 02:43:28;;;;;;;10.88;7.70;;;;;;;10.15;84.47;95295.85;1749127;81;21044;-69
2022/09/14 02:46:16;;;;;;;12.13;6.87;;;;;;;10.17;84.74;95297.12;1749121;81;21006;-69
2022/09/14 02:49:14;;;;;;;4.83;3.40;;;;;;;10.21;85.07;95296.62;1748973;82;21033;-70
2022/09/14 02:52:21;;;;;;;8.75;2.55;;;;;;;10.25;84.96;95289.89;1749231;82;20985;-69
2022/09/14 02:55:03;;;;;;;4.45;2.15;;;;;;;10.25;84.62;95286.40;1747967;81;21124;-70
2022/09/14 02:57:30;;;;;;;3.72;2.30;;;;;;;10.31;84.51;95284.99;1749089;82;21057;-70
2022/09/14 02:59:56;;;;;;;4.03;2.47;;;;;;;10.38;84.90;95284.82;1749172;82;21025;-70
2022/09/14 03:02:23;;;;;;;4.83;3.15;;;;;;;10.39;84.85;95285.22;1749147;81;20970;-70
2022/09/14 03:04:50;;;;;;;3.55;3.17;;;;;;;10.40;84.68;95278.17;1748594;82;21116;-70
2022/09/14 03:07:16;;;;;;;5.95;3.15;;;;;;;10.39;84.36;95278.62;1749289;82;21064;-70
2022/09/14 03:09:43;;;;;;;3.45;2.25;;;;;;;10.44;84.71;95261.38;1749437;81;21021;-69
2022/09/14 03:12:09;;;;;;;6.87;2.22;;;;;;;10.40;84.15;95264.98;1749075;82;21049;-70
2022/09/14 03:14:36;;;;;;;4.45;2.22;;;;;;;10.44;84.40;95256.56;1752059;81;21049;-70
2022/09/14 03:17:03;;;;;;;6.60;2.02;;;;;;;10.40;84.08;95257.07;1757194;82;20985;-70
2022/09/14 03:19:29;;;;;;;2.87;2.10;;;;;;;10.38;84.69;95250.53;1756906;82;21024;-69
2022/09/14 03:21:57;;;;;;;3.00;2.02;;;;;;;10.42;84.33;95254.41;1757211;82;21001;-69
2022/09/14 03:24:24;;;;;;;4.67;2.02;;;;;;;10.45;84.50;95247.28;1757147;82;21013;-69
2022/09/14 03:26:51;;;;;;;2.80;2.05;;;;;;;10.47;83.93;95251.21;1757726;82;21431;-69
2022/09/14 03:29:17;;;;;;;2.98;2.55;;;;;;;10.44;83.99;95244.24;1757465;82;21049;-70
2022/09/14 03:31:44;;;;;;;4.37;2.12;;;;;;;10.47;84.28;95252.08;1757419;82;21514;-69
2022/09/14 03:34:10;;;;;;;5.25;2.35;;;;;;;10.52;84.28;95256.79;1756810;82;21024;-70
2022/09/14 03:36:37;;;;;;;5.80;2.60;;;;;;;10.56;83.72;95257.14;1757314;82;21503;-70
2022/09/14 03:39:03;;;;;;;3.77;2.45;;;;;;;10.58;83.76;95255.34;1757504;82;20997;-70
2022/09/14 03:41:30;;;;;;;4.78;2.87;;;;;;;10.58;83.95;95255.77;1757064;81;21025;-70
2022/09/14 03:43:56;;;;;;;5.12;2.30;;;;;;;10.63;83.84;95251.70;1757161;82;21072;-70
2022/09/14 03:46:24;;;;;;;3.87;2.45;;;;;;;10.58;82.98;95247.85;1756917;82;21009;-70
2022/09/14 03:48:53;;;;;;;4.33;3.02;;;;;;;10.48;83.19;95250.30;1757275;82;21492;-70
2022/09/14 03:51:20;;;;;;;3.65;2.42;;;;;;;10.37;83.85;95250.56;1757129;82;20977;-70
2022/09/14 03:53:46;;;;;;;4.05;3.25;;;;;;;10.39;84.13;95254.89;1757329;81;21005;-69
2022/09/14 03:56:18;;;;;;;4.70;3.50;;;;;;;10.40;83.97;95255.75;1757294;82;21048;-70
2022/09/14 03:58:46;;;;;;;6.42;4.03;;;;;;;10.34;84.38;95254.59;1757047;82;21029;-70
2022/09/14 04:01:17;;;;;;;4.47;3.27;;;;;;;10.33;83.88;95263.39;1757353;82;21021;-69
2022/09/14 04:03:44;;;;;;;4.42;2.50;;;;;;;10.37;84.43;95258.02;1756946;82;21057;-70
2022/09/14 04:06:13;;;;;;;3.75;2.15;;;;;;;10.36;84.65;95254.97;1757273;82;21037;-69
2022/09/14 04:08:41;;;;;;;4.25;1.98;;;;;;;10.39;84.51;95254.89;1757234;82;21024;-70
2022/09/14 04:11:19;;;;;;;3.47;2.08;;;;;;;10.36;84.05;95258.06;1756886;82;21060;-70
2022/09/14 04:13:46;;;;;;;4.97;2.30;;;;;;;10.30;84.18;95261.69;1757327;82;20985;-70
2022/09/14 04:16:14;;;;;;;5.22;2.27;;;;;;;10.30;84.06;95256.88;1748999;81;21033;-71
2022/09/14 04:18:41;;;;;;;3.15;2.12;;;;;;;10.30;84.09;95256.88;1749382;81;21060;-71
2022/09/14 04:21:15;;;;;;;2.40;2.20;;;;;;;10.17;83.59;95255.80;1749322;82;20981;-71
2022/09/14 04:23:42;;;;;;;7.55;2.52;;;;;;;10.13;83.91;95264.70;1749305;82;21009;-72
2022/09/14 04:26:11;;;;;;;2.20;2.00;;;;;;;10.08;83.78;95263.03;1749278;82;21491;-72
2022/09/14 04:28:39;;;;;;;2.65;1.98;;;;;;;9.97;83.81;95264.59;1749251;82;20992;-71
2022/09/14 04:31:06;;;;;;;4.65;2.60;;;;;;;9.88;84.00;95265.67;1749563;82;21462;-71
2022/09/14 04:33:35;;;;;;;3.52;2.40;;;;;;;9.80;84.87;95282.52;1749135;81;21009;-74
2022/09/14 04:36:06;;;;;;;7.25;2.47;;;;;;;9.79;85.36;95280.80;1749363;82;21444;-72
2022/09/14 04:38:34;;;;;;;3.45;2.05;;;;;;;9.76;85.34;95276.46;1749196;82;21443;-74
2022/09/14 04:41:12;;;;;;;4.70;1.82;;;;;;;9.71;85.00;95273.92;1749288;81;21033;-72
2022/09/14 04:43:39;;;;;;;2.25;1.85;;;;;;;9.71;85.14;95283.14;1748720;81;21005;-72
2022/09/14 04:46:16;;;;;;;4.92;2.33;;;;;;;9.69;85.91;95282.75;1749142;81;21017;-72
2022/09/14 04:48:43;;;;;;;3.10;2.40;;;;;;;9.69;86.38;95279.66;1748358;81;21013;-72
2022/09/14 04:51:17;;;;;;;3.22;2.80;;;;;;;9.69;86.20;95276.16;1749451;81;21049;-72
2022/09/14 04:53:47;;;;;;;4.05;2.12;;;;;;;9.70;86.06;95280.09;1749321;81;21005;-72
2022/09/14 04:56:14;;;;;;;6.72;2.70;;;;;;;9.72;85.80;95284.00;1749171;81;21013;-72
2022/09/14 04:58:48;;;;;;;3.00;2.05;;;;;;;9.71;86.01;95287.55;1749277;82;21041;-72
2022/09/14 05:01:19;;;;;;;3.58;1.92;;;;;;;9.72;85.79;95284.00;1748995;81;21053;-73
2022/09/14 05:03:46;;;;;;;7.80;2.10;;;;;;;9.74;86.43;95285.70;1749120;81;21029;-71
2022/09/14 05:06:17;;;;;;;3.27;2.25;;;;;;;9.80;86.65;95289.97;1748271;82;21077;-68
2022/09/14 05:08:45;;;;;;;6.03;3.83;;;;;;;9.92;86.89;95279.18;1748842;82;21496;-73
2022/09/14 05:11:17;;;;;;;7.50;4.97;;;;;;;10.09;87.13;95276.19;1749096;81;21085;-74
2022/09/14 05:13:44;;;;;;;9.28;5.78;;;;;;;10.27;87.00;95274.91;1748349;81;21021;-70
2022/09/14 05:16:18;;;;;;;6.17;5.40;;;;;;;10.43;86.53;95275.45;1748476;81;22151;-67
2022/09/14 05:18:45;;;;;;;17.77;7.45;;;;;;;10.53;85.96;95273.48;1749111;82;21062;-71
2022/09/14 05:21:16;;;;;;;12.95;9.35;;;;;;;10.74;86.39;95270.34;1749024;82;21483;-67
2022/09/14 05:23:43;;;;;;;20.12;12.80;;;;;;;10.98;86.11;95276.77;1749124;82;21068;-68
2022/09/14 05:26:12;;;;;;;25.68;14.38;;;;;;;11.16;85.15;95266.22;1749169;82;21503;-70
2022/09/14 05:28:39;;;;;;;19.32;12.75;;;;;;;11.37;85.46;95263.91;1749004;82;21563;-71
2022/09/14 05:31:09;;;;;;;18.55;10.85;;;;;;;11.58;85.18;95258.02;1748447;82;20982;-72
2022/09/14 05:33:36;;;;;;;15.63;8.93;;;;;;;11.78;84.27;95255.27;1748858;82;21124;-71
2022/09/14 05:36:07;;;;;;;16.05;8.65;;;;;;;11.88;83.87;95255.45;1748772;82;21030;-71
2022/09/14 05:38:37;;;;;;;14.70;8.03;;;;;;;12.05;83.64;95255.83;1749124;81;20985;-70
2022/09/14 05:41:06;;;;;;;12.05;6.55;;;;;;;12.22;82.91;95251.36;1749137;81;20989;-73
2022/09/14 05:43:33;;;;;;;10.72;5.70;;;;;;;12.38;83.01;95256.17;1749128;81;21060;-68
2022/09/14 05:46:02;;;;;;;9.93;4.60;;;;;;;12.54;82.79;95252.13;1748975;82;21014;-72
2022/09/14 05:48:35;;;;;;;15.83;4.20;;;;;;;12.68;81.55;95251.23;1749234;82;20986;-71
2022/09/14 05:51:15;;;;;;;9.83;4.72;;;;;;;12.75;81.66;95242.61;1748763;81;21021;-71
2022/09/14 05:53:48;;;;;;;11.90;4.62;;;;;;;12.90;81.67;95248.76;1738742;82;21014;-80
2022/09/14 05:56:16;;;;;;;;;;;;;;;13.04;81.22;95244.77;1751819;82;20978;-66
2022/09/14 05:58:43;;;;;;;5.97;3.62;;;;;;;13.13;80.92;95244.00;1749303;81;20105;-72
2022/09/14 06:01:25;;;;;;;4.85;2.98;;;;;;;13.17;80.50;95242.96;1738806;82;20994;-68
2022/09/14 06:03:55;;;;;;;3.87;3.15;;;;;;;13.20;78.93;95238.91;1749239;81;21064;-70
2022/09/14 06:06:23;;;;;;;4.35;2.95;;;;;;;13.22;79.35;95230.89;1749028;81;21487;-69
2022/09/14 06:08:52;;;;;;;8.60;3.17;;;;;;;13.33;79.19;95232.75;1748971;82;21097;-67
2022/09/14 06:11:24;;;;;;;5.55;3.10;;;;;;;13.39;78.40;95239.61;1748959;82;21135;-68
2022/09/14 06:13:51;;;;;;;6.92;3.60;;;;;;;13.42;77.76;95237.70;1747780;81;21546;-69
2022/09/14 06:16:20;;;;;;;3.98;3.17;;;;;;;13.45;77.52;95238.52;1737507;82;21064;-70
2022/09/14 06:18:48;;;;;;;4.37;3.05;;;;;;;13.56;78.02;95239.88;1756195;82;21099;-68
2022/09/14 06:21:18;;;;;;;6.10;3.02;;;;;;;13.74;78.21;95243.65;1756025;82;20977;-68
2022/09/14 06:23:46;;;;;;;3.77;2.90;;;;;;;13.90;77.23;95245.27;1756662;82;21029;-68
2022/09/14 06:26:13;;;;;;;5.80;3.20;;;;;;;14.04;77.83;95241.65;1757085;82;21016;-67
2022/09/14 06:28:41;;;;;;;5.80;3.05;;;;;;;14.21;77.82;95239.69;1756912;82;21471;-67
2022/09/14 06:31:14;;;;;;;3.62;2.75;;;;;;;14.37;77.17;95239.95;1756955;82;21530;-67
2022/09/14 06:33:45;;;;;;;6.53;2.92;;;;;;;14.56;77.26;95229.48;1757029;82;20978;-67
2022/09/14 06:36:16;;;;;;;5.20;2.70;;;;;;;14.74;76.77;95227.91;1757483;82;21037;-67
2022/09/14 06:38:43;;;;;;;7.00;2.60;;;;;;;14.93;76.70;95230.66;1757076;82;20973;-67
2022/09/14 06:41:13;;;;;;;3.55;2.33;;;;;;;15.20;76.87;95235.76;1757235;82;21558;-67
2022/09/14 06:43:41;;;;;;;4.65;2.25;;;;;;;15.41;75.74;95233.49;1756796;82;21903;-67
2022/09/14 06:46:18;;;;;;;5.05;1.80;;;;;;;15.91;73.86;95227.77;1757029;82;21495;-67
2022/09/14 06:48:55;;;;;;;3.08;1.77;;;;;;;15.91;73.86;95227.77;1757081;82;21005;-68
2022/09/14 06:51:31;;;;;;;2.27;1.92;;;;;;;16.07;70.58;95223.92;1756776;82;20961;-67
2022/09/14 06:53:59;;;;;;;3.27;1.90;;;;;;;16.19;70.94;95226.03;1757129;82;21033;-67
2022/09/14 06:56:29;;;;;;;3.58;2.08;;;;;;;16.36;72.00;95221.72;1756956;81;21057;-67
2022/09/14 06:58:57;;;;;;;2.08;1.77;;;;;;;16.60;72.01;95229.86;1757037;82;21029;-70
2022/09/14 07:01:26;;;;;;;4.03;2.00;;;;;;;16.75;70.72;95222.92;1757108;82;21013;-67
2022/09/14 07:03:53;;;;;;;2.98;2.30;;;;;;;16.92;70.95;95223.95;1756902;82;21051;-68
2022/09/14 07:06:24;;;;;;;2.17;1.98;;;;;;;17.05;70.09;95221.92;1755151;82;21507;-71
2022/09/14 07:08:52;;;;;;;4.72;2.35;;;;;;;17.18;69.56;95215.50;1752548;81;21016;-69
2022/09/14 07:11:22;;;;;;;3.83;2.25;;;;;;;17.33;69.25;95212.52;1751322;82;21473;-67
2022/09/14 07:13:49;;;;;;;3.85;2.08;;;;;;;17.48;68.37;95207.73;1728821;82;21012;-68
2022/09/14 07:16:16;;;;;;;3.67;2.00;;;;;;;17.61;67.32;95207.09;1755336;81;21103;-68
2022/09/14 07:18:43;;;;;;;3.90;2.15;;;;;;;17.67;63.99;95202.80;1756335;82;21067;-68
2022/09/14 07:21:16;;;;;;;4.10;2.00;;;;;;;17.69;64.91;95207.10;1756214;82;21032;-75
2022/09/14 07:23:45;;;;;;;3.80;2.27;;;;;;;17.77;65.26;95211.17;1756611;82;21011;-69
2022/09/14 07:26:26;;;;;;;3.60;2.17;;;;;;;17.77;64.19;95202.70;1756480;82;21639;-69
2022/09/14 07:28:56;;;;;;;2.10;1.90;;;;;;;17.83;65.03;95207.72;1756396;82;21001;-72
2022/09/14 07:31:28;;;;;;;3.37;2.20;;;;;;;17.85;62.53;95215.66;1756241;82;21083;-66
2022/09/14 07:33:59;;;;;;;2.92;1.98;;;;;;;17.87;64.46;95215.11;1757019;81;20981;-76
2022/09/14 07:36:27;;;;;;;2.62;2.33;;;;;;;17.89;64.47;95210.08;1756851;81;20989;-72
2022/09/14 07:38:55;;;;;;;3.27;2.10;;;;;;;17.89;65.19;95214.53;1756825;82;21057;-71
2022/09/14 07:41:25;;;;;;;4.65;2.37;;;;;;;17.86;67.15;95220.04;1757125;82;21024;-75
2022/09/14 07:43:56;;;;;;;3.00;2.70;;;;;;;17.80;67.73;95216.38;1756505;82;20989;-72
2022/09/14 07:46:23;;;;;;;2.92;2.55;;;;;;;17.78;67.86;95212.89;1756975;82;21507;-74
2022/09/14 07:48:57;;;;;;;3.62;3.33;;;;;;;17.78;67.65;95218.23;1757060;82;21009;-70
2022/09/14 07:51:25;;;;;;;6.12;4.20;;;;;;;17.75;67.11;95211.25;1756796;82;21439;-71
2022/09/14 07:53:52;;;;;;;3.80;2.98;;;;;;;17.78;67.34;95215.55;1756723;82;21021;-74
2022/09/14 07:56:20;;;;;;;3.12;2.92;;;;;;;17.90;67.83;95215.80;1756513;81;21491;-72
2022/09/14 07:58:48;;;;;;;3.60;2.52;;;;;;;18.08;67.89;95214.42;1756984;81;21111;-73
2022/09/14 08:01:16;;;;;;;4.05;2.37;;;;;;;18.32;67.49;95210.87;1756199;82;21028;-70
2022/09/14 08:03:45;;;;;;;3.77;2.15;;;;;;;18.62;67.01;95217.65;1757063;81;21484;-69
2022/09/14 08:06:15;;;;;;;3.43;2.03;;;;;;;18.73;60.28;95207.23;1756870;82;21028;-72
2022/09/14 08:08:46;;;;;;;3.17;2.00;;;;;;;18.84;62.10;95207.98;1757126;82;21013;-73
2022/09/14 08:11:29;;;;;;;4.80;2.08;;;;;;;18.93;62.45;95214.15;1756775;82;21499;-73
2022/09/14 08:14:11;;;;;;;2.58;2.10;;;;;;;18.95;62.50;95208.24;1757221;81;21001;-75
2022/09/14 08:16:39;;;;;;;5.78;2.08;;;;;;;18.92;62.18;95212.41;1751275;81;21089;-69
2022/09/14 08:19:14;;;;;;;2.27;2.08;;;;;;;18.90;62.30;95210.32;1749285;81;21487;-68
2022/09/14 08:21:41;;;;;;;1.90;1.80;;;;;;;18.90;61.45;95211.66;1748628;81;21116;-68
2022/09/14 08:24:14;;;;;;;2.37;2.17;;;;;;;18.99;62.12;95211.59;1748691;81;21013;-68
2022/09/14 08:26:41;;;;;;;7.30;2.10;;;;;;;19.08;61.66;95206.20;1748768;81;21061;-68
2022/09/14 08:29:07;;;;;;;6.45;2.25;;;;;;;19.13;61.29;95202.30;1749270;81;21502;-68
2022/09/14 08:31:38;;;;;;;2.05;1.87;;;;;;;19.18;61.42;95194.02;1748930;81;21084;-69
2022/09/14 08:34:05;;;;;;;2.75;2.20;;;;;;;19.27;61.52;95188.09;1749295;81;21005;-68
2022/09/14 08:36:39;;;;;;;2.72;2.22;;;;;;;19.43;60.92;95185.39;1748913;82;21546;-69
2022/09/14 08:39:09;;;;;;;4.90;1.85;;;;;;;19.45;60.21;95189.70;1749114;82;21061;-68
2022/09/14 08:41:47;;;;;;;2.33;2.12;;;;;;;19.47;59.27;95186.91;1748882;81;21021;-69
2022/09/14 08:44:26;;;;;;;5.58;2.37;;;;;;;19.43;60.23;95180.89;1748911;81;21009;-66
2022/09/14 08:47:23;;;;;;;3.17;1.95;;;;;;;19.35;61.37;95185.86;1748802;81;21021;-67
2022/09/14 08:50:00;;;;;;;4.22;2.10;;;;;;;19.30;59.60;95185.23;1748866;81;20974;-68
2022/09/14 08:52:34;;;;;;;2.85;2.42;;;;;;;19.33;61.47;95189.57;1749153;81;21514;-68
2022/09/14 08:55:32;;;;;;;5.00;2.67;;;;;;;19.38;61.67;95196.36;1749024;81;21081;-71
2022/09/14 08:58:53;;;;;;;2.05;1.95;;;;;;;19.42;61.96;95201.89;1748381;81;21040;-71
2022/09/14 09:01:59;;;;;;;4.97;2.17;;;;;;;19.42;61.89;95195.20;1749202;81;21515;-67
2022/09/14 09:04:43;;;;;;;3.65;2.35;;;;;;;19.42;61.19;95203.72;1749259;81;21499;-67
2022/09/14 09:07:29;;;;;;;9.23;2.08;;;;;;;19.51;61.65;95198.31;1747969;81;21129;-69
2022/09/14 09:09:57;;;;;;;2.90;2.17;;;;;;;19.52;58.90;95191.99;1749115;81;21006;-68
2022/09/14 09:12:40;;;;;;;2.27;1.85;;;;;;;19.51;60.89;95193.81;1749012;81;21013;-69
2022/09/14 09:15:22;;;;;;;;;;;;;;;19.57;61.49;95185.88;1751663;81;21033;-69
2022/09/14 09:17:57;;;;;;;7.28;2.22;;;;;;;19.67;61.73;95177.23;1752241;81;20160;-69
2022/09/14 09:20:35;;;;;;;2.67;2.05;;;;;;;19.75;62.12;95176.76;1747713;82;21080;-69
2022/09/14 09:23:12;;;;;;;3.25;2.30;;;;;;;19.88;62.24;95176.86;1748653;81;21503;-69
2022/09/14 09:26:05;;;;;;;3.55;2.58;;;;;;;20.00;62.40;95189.97;1748662;81;21005;-69
2022/09/14 09:28:33;;;;;;;5.22;2.20;;;;;;;20.05;62.55;95191.89;1748692;82;21060;-70
2022/09/14 09:31:05;;;;;;;3.40;2.22;;;;;;;20.09;62.02;95201.47;1748959;81;21032;-70
2022/09/14 09:33:34;;;;;;;3.27;2.65;;;;;;;20.19;61.91;95197.73;1747942;81;21570;-70
2022/09/14 09:36:07;;;;;;;4.00;2.22;;;;;;;20.23;61.20;95200.59;1747915;81;21005;-69
2022/09/14 09:38:34;;;;;;;2.52;1.80;;;;;;;20.22;60.09;95201.07;1749004;82;21478;-70
2022/09/14 09:41:21;;;;;;;5.35;2.50;;;;;;;20.27;61.17;95192.27;1749273;81;21022;-69
2022/09/14 09:44:02;;;;;;;6.10;2.27;;;;;;;20.33;60.08;95192.34;1748831;82;21072;-69
2022/09/14 09:46:33;;;;;;;4.25;3.25;;;;;;;20.35;59.90;95198.96;1749103;82;20991;-68
2022/09/14 09:49:16;;;;;;;3.20;2.90;;;;;;;20.42;59.27;95189.58;1749235;81;21070;-68
2022/09/14 09:51:43;;;;;;;4.33;2.27;;;;;;;20.44;59.86;95197.05;1749147;81;20969;-68
2022/09/14 09:54:19;;;;;;;6.10;2.33;;;;;;;20.38;59.45;95200.95;1748863;82;21093;-68
2022/09/14 09:57:21;;;;;;;3.15;2.17;;;;;;;20.30;58.87;95200.59;1749426;81;21024;-68
2022/09/14 09:59:49;;;;;;;5.28;2.30;;;;;;;20.34;59.02;95195.91;1743660;81;21084;-69
2022/09/14 10:02:31;;;;;;;2.70;2.30;;;;;;;20.39;59.61;95183.94;1747985;81;21048;-71
2022/09/14 10:05:12;;;;;;;3.55;2.40;;;;;;;20.40;59.39;95181.63;1748412;82;21156;-69
2022/09/14 10:07:58;;;;;;;5.47;2.25;;;;;;;20.32;58.45;95183.94;1748517;81;21514;-70
2022/09/14 10:10:39;;;;;;;2.77;2.40;;;;;;;20.26;58.61;95185.66;1748232;81;21049;-69
2022/09/14 10:13:30;;;;;;;2.50;2.30;;;;;;;20.16;57.72;95191.20;1746539;81;21068;-69
2022/09/14 10:16:16;;;;;;;5.45;2.72;;;;;;;19.98;58.16;95195.45;1748407;81;21036;-69
2022/09/14 10:18:47;;;;;;;3.83;2.55;;;;;;;19.85;58.29;95195.31;1749032;82;21141;-69
2022/09/14 10:21:18;;;;;;;4.08;2.55;;;;;;;19.69;60.85;95196.37;1749080;82;21032;-69
2022/09/14 10:23:46;;;;;;;5.33;2.40;;;;;;;19.55;61.68;95195.81;1748341;81;21034;-69
2022/09/14 10:26:17;;;;;;;2.22;1.98;;;;;;;19.45;62.55;95195.05;1749135;82;21466;-69
2022/09/14 10:28:47;;;;;;;3.15;2.27;;;;;;;19.32;64.01;95192.70;1749127;82;21052;-69
2022/09/14 10:31:25;;;;;;;4.85;2.40;;;;;;;19.15;65.61;95196.84;1749001;82;21028;-69
2022/09/14 10:33:57;;;;;;;3.62;2.33;;;;;;;19.04;65.51;95193.47;1749184;81;21014;-69
2022/09/14 10:36:29;;;;;;;3.93;2.40;;;;;;;18.85;66.19;95192.80;1749154;81;20961;-71
2022/09/14 10:39:25;;;;;;;2.90;2.40;;;;;;;18.71;66.34;95186.89;1749015;81;20986;-68
2022/09/14 10:42:34;;;;;;;3.35;2.50;;;;;;;18.60;67.59;95184.84;1749094;82;21060;-69
2022/09/14 10:45:22;;;;;;;3.58;2.35;;;;;;;18.45;68.54;95185.22;1748825;82;21001;-70
2022/09/14 10:48:06;;;;;;;3.05;2.72;;;;;;;18.49;68.99;95185.90;1748746;81;21021;-69
2022/09/14 10:50:47;;;;;;;4.50;2.70;;;;;;;18.54;70.40;95179.34;1748502;81;21009;-70
2022/09/14 10:53:37;;;;;;;4.33;2.37;;;;;;;18.68;71.01;95183.06;1749099;82;21013;-69
2022/09/14 10:56:28;;;;;;;6.83;2.58;;;;;;;18.71;70.28;95189.56;1748656;82;21039;-69
2022/09/14 10:59:21;;;;;;;3.90;2.40;;;;;;;18.75;70.39;95194.69;1713182;83;21031;-69
2022/09/14 11:02:20;;;;;;;4.03;2.42;;;;;;;18.81;69.71;95199.66;1713233;84;21011;-69
2022/09/14 11:05:22;;;;;;;3.05;2.42;;;;;;;18.91;69.19;95197.81;1748586;82;21012;-69
2022/09/14 11:08:18;;;;;;;10.05;2.65;;;;;;;18.97;67.96;95190.27;1749079;81;21536;-69
2022/09/14 11:11:19;;;;;;;7.25;2.50;;;;;;;19.07;67.83;95195.09;1713356;83;21015;-69
2022/09/14 11:14:08;;;;;;;3.25;2.10;;;;;;;19.12;67.58;95193.88;1713185;83;21059;-69
2022/09/14 11:17:03;;;;;;;4.10;2.62;;;;;;;19.14;67.22;95196.47;1715571;83;21030;-69
2022/09/14 11:20:01;;;;;;;3.98;2.42;;;;;;;19.09;66.94;95198.07;1720717;83;21018;-69
2022/09/14 11:23:00;;;;;;;5.00;2.60;;;;;;;19.05;67.81;95194.32;1757245;81;21505;-69
2022/09/14 11:25:32;;;;;;;6.80;2.80;;;;;;;18.86;69.80;95194.55;1711185;81;21012;-70
2022/09/14 11:28:04;;;;;;;7.50;2.98;;;;;;;18.73;70.36;95196.55;1742245;82;20995;-69
2022/09/14 11:30:40;;;;;;;6.77;2.70;;;;;;;18.66;70.72;95193.83;1721371;83;21003;-69
2022/09/14 11:33:15;;;;;;;7.53;2.72;;;;;;;18.56;71.00;95204.17;1721068;83;20995;-69
2022/09/14 11:35:56;;;;;;;4.35;2.35;;;;;;;18.58;71.20;95204.95;1720668;83;21058;-69
2022/09/14 11:38:30;;;;;;;5.03;2.42;;;;;;;18.56;72.05;95201.50;1700620;83;21003;-69
2022/09/14 11:41:08;;;;;;;2.47;2.27;;;;;;;18.56;71.58;95196.16;1756947;81;21016;-69
2022/09/14 11:44:04;;;;;;;6.22;2.58;;;;;;;18.54;72.35;95194.52;1719574;83;21030;-69
2022/09/14 11:46:38;;;;;;;3.80;2.40;;;;;;;18.49;73.41;95191.24;1757376;81;20979;-69
2022/09/14 11:49:45;;;;;;;5.20;2.70;;;;;;;18.49;72.68;95190.77;1721132;83;21485;-69
2022/09/14 11:52:26;;;;;;;3.98;2.67;;;;;;;18.50;73.28;95192.50;1738544;81;21041;-69
2022/09/14 11:54:53;;;;;;;5.15;2.60;;;;;;;18.43;74.56;95200.47;1738046;82;20988;-69
2022/09/14 11:57:25;;;;;;;4.42;2.83;;;;;;;18.36;74.13;95193.26;1721229;83;20979;-68
2022/09/14 12:00:02;;;;;;;4.12;2.20;;;;;;;18.36;73.77;95199.08;1757324;82;21083;-68
2022/09/14 12:02:41;;;;;;;6.42;2.40;;;;;;;18.31;74.17;95194.47;1756983;81;21505;-68
2022/09/14 12:05:13;;;;;;;4.20;2.37;;;;;;;18.23;74.86;95194.03;1720988;83;21046;-69
2022/09/14 12:07:49;;;;;;;2.25;2.05;;;;;;;18.25;75.62;95201.02;1721011;83;21496;-69
2022/09/14 12:10:18;;;;;;;2.75;2.35;;;;;;;18.22;75.10;95200.30;1720801;83;21026;-69